sensor_id;sensor_type;location;lat;lon;timestamp;temperature;humidity
30893;DHT22;17595;50.884;4.346;2023-06-19T00:01:22;22.80;99.90
30893;DHT22;17595;50.884;4.346;2023-06-19T00:03:47;22.90;99.90
30893;DHT22;17595;50.884;4.346;2023-06-19T00:06:13;22.80;99.90
30893;DHT22;17595;50.884;4.346;2023-06-19T00:08:38;22.90;99.90
30893;DHT22;17595;50.884;4.346;2023-06-19T00:11:07;22.90;99.90
30893;DHT22;17595;50.884;4.346;2023-06-19T00:13:32;22.90;99.90
30893;DHT22;17595;50.884;4.346;2023-06-19T00:15:59;22.80;99.90
30893;DHT22;17595;50.884;4.346;2023-06-19T00:18:26;22.60;99.90
30893;DHT22;17595;50.884;4.346;2023-06-19T00:20:52;22.50;99.90
30893;DHT22;17595;50.884;4.346;2023-06-19T00:23:19;22.70;99.90
30893;DHT22;17595;50.884;4.346;2023-06-19T00:25:45;22.70;99.90
30893;DHT22;17595;50.884;4.346;2023-06-19T00:28:11;22.70;99.90
30893;DHT22;17595;50.884;4.346;2023-06-19T00:30:40;22.60;99.90
30893;DHT22;17595;50.884;4.346;2023-06-19T00:33:07;22.70;99.90
30893;DHT22;17595;50.884;4.346;2023-06-19T00:35:33;22.70;99.90
30893;DHT22;17595;50.884;4.346;2023-06-19T00:37:58;22.60;99.90
30893;DHT22;17595;50.884;4.346;2023-06-19T00:40:32;22.70;99.90
30893;DHT22;17595;50.884;4.346;2023-06-19T00:42:58;22.70;99.90
30893;DHT22;17595;50.884;4.346;2023-06-19T00:45:25;22.80;99.90
30893;DHT22;17595;50.884;4.346;2023-06-19T00:47:54;22.70;99.90
30893;DHT22;17595;50.884;4.346;2023-06-19T00:50:21;22.60;99.90
30893;DHT22;17595;50.884;4.346;2023-06-19T00:52:47;22.60;99.90
30893;DHT22;17595;50.884;4.346;2023-06-19T00:55:13;22.70;99.90
30893;DHT22;17595;50.884;4.346;2023-06-19T00:57:40;22.90;99.90
30893;DHT22;17595;50.884;4.346;2023-06-19T01:00:06;22.70;99.90
30893;DHT22;17595;50.884;4.346;2023-06-19T01:02:33;22.60;99.90
30893;DHT22;17595;50.884;4.346;2023-06-19T01:04:59;22.70;99.90
30893;DHT22;17595;50.884;4.346;2023-06-19T01:10:23;22.80;99.90
30893;DHT22;17595;50.884;4.346;2023-06-19T01:12:59;22.60;99.90
30893;DHT22;17595;50.884;4.346;2023-06-19T01:15:26;22.70;99.90
30893;DHT22;17595;50.884;4.346;2023-06-19T01:17:54;22.60;99.90
30893;DHT22;17595;50.884;4.346;2023-06-19T01:20:20;22.60;99.90
30893;DHT22;17595;50.884;4.346;2023-06-19T01:22:46;22.70;99.90
30893;DHT22;17595;50.884;4.346;2023-06-19T01:25:12;22.60;99.90
30893;DHT22;17595;50.884;4.346;2023-06-19T01:27:41;22.70;99.90
30893;DHT22;17595;50.884;4.346;2023-06-19T01:30:11;22.70;99.90
30893;DHT22;17595;50.884;4.346;2023-06-19T01:35:11;22.70;99.90
30893;DHT22;17595;50.884;4.346;2023-06-19T01:37:39;22.80;99.90
30893;DHT22;17595;50.884;4.346;2023-06-19T01:40:08;22.70;99.90
30893;DHT22;17595;50.884;4.346;2023-06-19T01:42:36;22.70;99.90
30893;DHT22;17595;50.884;4.346;2023-06-19T01:45:03;22.70;99.90
30893;DHT22;17595;50.884;4.346;2023-06-19T01:47:29;22.70;99.90
30893;DHT22;17595;50.884;4.346;2023-06-19T01:49:55;22.60;99.90
30893;DHT22;17595;50.884;4.346;2023-06-19T01:52:20;22.70;99.90
30893;DHT22;17595;50.884;4.346;2023-06-19T01:54:46;22.60;99.90
30893;DHT22;17595;50.884;4.346;2023-06-19T01:57:12;22.70;99.90
30893;DHT22;17595;50.884;4.346;2023-06-19T01:59:38;22.60;99.90
30893;DHT22;17595;50.884;4.346;2023-06-19T02:02:04;22.60;99.90
30893;DHT22;17595;50.884;4.346;2023-06-19T02:04:32;22.50;99.90
30893;DHT22;17595;50.884;4.346;2023-06-19T02:06:57;22.70;99.90
30893;DHT22;17595;50.884;4.346;2023-06-19T02:09:23;22.70;99.90
30893;DHT22;17595;50.884;4.346;2023-06-19T02:11:49;22.70;99.90
30893;DHT22;17595;50.884;4.346;2023-06-19T02:14:14;22.60;99.90
30893;DHT22;17595;50.884;4.346;2023-06-19T02:16:40;22.60;99.90
30893;DHT22;17595;50.884;4.346;2023-06-19T02:19:10;22.40;99.90
30893;DHT22;17595;50.884;4.346;2023-06-19T02:21:36;22.40;99.90
30893;DHT22;17595;50.884;4.346;2023-06-19T02:24:01;22.50;99.90
30893;DHT22;17595;50.884;4.346;2023-06-19T02:26:27;22.40;99.90
30893;DHT22;17595;50.884;4.346;2023-06-19T02:28:55;22.40;99.90
30893;DHT22;17595;50.884;4.346;2023-06-19T02:31:24;22.40;99.90
30893;DHT22;17595;50.884;4.346;2023-06-19T02:33:50;22.70;99.90
30893;DHT22;17595;50.884;4.346;2023-06-19T02:36:16;22.80;99.90
30893;DHT22;17595;50.884;4.346;2023-06-19T02:38:48;23.00;99.90
30893;DHT22;17595;50.884;4.346;2023-06-19T02:41:14;22.90;99.90
30893;DHT22;17595;50.884;4.346;2023-06-19T02:43:41;22.70;99.90
30893;DHT22;17595;50.884;4.346;2023-06-19T02:46:07;22.50;99.90
30893;DHT22;17595;50.884;4.346;2023-06-19T02:48:33;22.40;99.90
30893;DHT22;17595;50.884;4.346;2023-06-19T02:50:59;22.10;99.90
30893;DHT22;17595;50.884;4.346;2023-06-19T02:53:24;22.10;99.90
30893;DHT22;17595;50.884;4.346;2023-06-19T02:55:50;22.10;99.90
30893;DHT22;17595;50.884;4.346;2023-06-19T02:58:16;22.10;99.90
30893;DHT22;17595;50.884;4.346;2023-06-19T03:00:43;22.30;99.90
30893;DHT22;17595;50.884;4.346;2023-06-19T03:03:09;22.20;99.90
30893;DHT22;17595;50.884;4.346;2023-06-19T03:05:34;22.30;99.90
30893;DHT22;17595;50.884;4.346;2023-06-19T03:08:00;22.30;99.90
30893;DHT22;17595;50.884;4.346;2023-06-19T03:10:26;22.30;99.90
30893;DHT22;17595;50.884;4.346;2023-06-19T03:12:51;22.20;99.90
30893;DHT22;17595;50.884;4.346;2023-06-19T03:15:17;22.20;99.90
30893;DHT22;17595;50.884;4.346;2023-06-19T03:17:43;22.30;99.90
30893;DHT22;17595;50.884;4.346;2023-06-19T03:20:08;22.40;99.90
30893;DHT22;17595;50.884;4.346;2023-06-19T03:22:39;22.20;99.90
30893;DHT22;17595;50.884;4.346;2023-06-19T03:25:04;21.70;99.90
30893;DHT22;17595;50.884;4.346;2023-06-19T03:27:31;21.40;99.90
30893;DHT22;17595;50.884;4.346;2023-06-19T03:29:57;21.50;99.90
30893;DHT22;17595;50.884;4.346;2023-06-19T03:32:23;21.50;99.90
30893;DHT22;17595;50.884;4.346;2023-06-19T03:34:48;21.50;99.90
30893;DHT22;17595;50.884;4.346;2023-06-19T03:37:15;21.70;99.90
30893;DHT22;17595;50.884;4.346;2023-06-19T03:39:41;21.50;99.90
30893;DHT22;17595;50.884;4.346;2023-06-19T03:42:07;21.40;99.90
30893;DHT22;17595;50.884;4.346;2023-06-19T03:44:33;21.20;99.90
30893;DHT22;17595;50.884;4.346;2023-06-19T03:46:59;21.00;99.90
30893;DHT22;17595;50.884;4.346;2023-06-19T03:49:24;20.90;99.90
30893;DHT22;17595;50.884;4.346;2023-06-19T03:51:50;20.70;99.90
30893;DHT22;17595;50.884;4.346;2023-06-19T03:54:16;20.80;99.90
30893;DHT22;17595;50.884;4.346;2023-06-19T03:56:41;21.00;99.90
30893;DHT22;17595;50.884;4.346;2023-06-19T03:59:07;21.00;99.90
30893;DHT22;17595;50.884;4.346;2023-06-19T04:01:33;21.10;99.90
30893;DHT22;17595;50.884;4.346;2023-06-19T04:03:58;21.00;99.90
30893;DHT22;17595;50.884;4.346;2023-06-19T04:06:24;20.90;99.90
30893;DHT22;17595;50.884;4.346;2023-06-19T04:08:50;20.90;99.90
30893;DHT22;17595;50.884;4.346;2023-06-19T04:11:15;21.00;99.90
30893;DHT22;17595;50.884;4.346;2023-06-19T04:13:41;20.90;99.90
30893;DHT22;17595;50.884;4.346;2023-06-19T04:16:07;21.00;99.90
30893;DHT22;17595;50.884;4.346;2023-06-19T04:18:32;21.30;99.90
30893;DHT22;17595;50.884;4.346;2023-06-19T04:20:58;21.30;99.90
30893;DHT22;17595;50.884;4.346;2023-06-19T04:23:23;21.40;99.90
30893;DHT22;17595;50.884;4.346;2023-06-19T04:25:49;21.30;99.90
30893;DHT22;17595;50.884;4.346;2023-06-19T04:28:15;21.30;99.90
30893;DHT22;17595;50.884;4.346;2023-06-19T04:30:40;21.40;99.90
30893;DHT22;17595;50.884;4.346;2023-06-19T04:33:06;21.40;99.90
30893;DHT22;17595;50.884;4.346;2023-06-19T04:35:33;21.40;99.90
30893;DHT22;17595;50.884;4.346;2023-06-19T04:38:00;21.30;99.90
30893;DHT22;17595;50.884;4.346;2023-06-19T04:40:26;21.30;99.90
30893;DHT22;17595;50.884;4.346;2023-06-19T04:42:53;21.60;99.90
30893;DHT22;17595;50.884;4.346;2023-06-19T04:45:19;21.80;99.90
30893;DHT22;17595;50.884;4.346;2023-06-19T04:47:45;21.60;99.90
30893;DHT22;17595;50.884;4.346;2023-06-19T04:50:10;21.50;99.90
30893;DHT22;17595;50.884;4.346;2023-06-19T04:52:36;21.50;99.90
30893;DHT22;17595;50.884;4.346;2023-06-19T04:55:05;21.50;99.90
30893;DHT22;17595;50.884;4.346;2023-06-19T04:57:31;21.50;99.90
30893;DHT22;17595;50.884;4.346;2023-06-19T04:59:56;21.70;99.90
30893;DHT22;17595;50.884;4.346;2023-06-19T05:02:22;21.70;99.90
30893;DHT22;17595;50.884;4.346;2023-06-19T05:04:49;21.60;99.90
30893;DHT22;17595;50.884;4.346;2023-06-19T05:07:14;21.30;99.90
30893;DHT22;17595;50.884;4.346;2023-06-19T05:09:43;21.30;99.90
30893;DHT22;17595;50.884;4.346;2023-06-19T05:12:09;21.50;99.90
30893;DHT22;17595;50.884;4.346;2023-06-19T05:14:35;21.50;99.90
30893;DHT22;17595;50.884;4.346;2023-06-19T05:17:01;21.50;99.90
30893;DHT22;17595;50.884;4.346;2023-06-19T05:19:26;21.40;99.90
30893;DHT22;17595;50.884;4.346;2023-06-19T05:21:52;21.40;99.90
30893;DHT22;17595;50.884;4.346;2023-06-19T05:24:17;21.50;99.90
30893;DHT22;17595;50.884;4.346;2023-06-19T05:26:43;21.60;99.90
30893;DHT22;17595;50.884;4.346;2023-06-19T05:29:09;21.70;99.90
30893;DHT22;17595;50.884;4.346;2023-06-19T05:31:35;22.10;99.90
30893;DHT22;17595;50.884;4.346;2023-06-19T05:34:01;22.10;99.90
30893;DHT22;17595;50.884;4.346;2023-06-19T05:36:26;22.10;99.90
30893;DHT22;17595;50.884;4.346;2023-06-19T05:38:52;22.30;99.90
30893;DHT22;17595;50.884;4.346;2023-06-19T05:41:17;22.00;99.90
30893;DHT22;17595;50.884;4.346;2023-06-19T05:43:43;21.80;99.90
30893;DHT22;17595;50.884;4.346;2023-06-19T05:46:09;21.50;99.90
30893;DHT22;17595;50.884;4.346;2023-06-19T05:48:34;21.50;99.90
30893;DHT22;17595;50.884;4.346;2023-06-19T05:51:00;21.70;99.90
30893;DHT22;17595;50.884;4.346;2023-06-19T05:53:25;21.70;99.90
30893;DHT22;17595;50.884;4.346;2023-06-19T05:55:51;21.70;99.90
30893;DHT22;17595;50.884;4.346;2023-06-19T05:58:17;21.30;99.90
30893;DHT22;17595;50.884;4.346;2023-06-19T06:00:45;21.50;99.90
30893;DHT22;17595;50.884;4.346;2023-06-19T06:03:11;21.90;99.90
30893;DHT22;17595;50.884;4.346;2023-06-19T06:05:39;22.00;99.90
30893;DHT22;17595;50.884;4.346;2023-06-19T06:08:04;21.90;99.90
30893;DHT22;17595;50.884;4.346;2023-06-19T06:10:30;22.00;99.90
30893;DHT22;17595;50.884;4.346;2023-06-19T06:12:56;22.20;99.90
30893;DHT22;17595;50.884;4.346;2023-06-19T06:15:21;21.80;99.90
30893;DHT22;17595;50.884;4.346;2023-06-19T06:17:47;21.70;99.90
30893;DHT22;17595;50.884;4.346;2023-06-19T06:20:13;21.80;99.90
30893;DHT22;17595;50.884;4.346;2023-06-19T06:22:42;21.80;99.90
30893;DHT22;17595;50.884;4.346;2023-06-19T06:25:08;22.00;99.90
30893;DHT22;17595;50.884;4.346;2023-06-19T06:27:35;22.10;99.90
30893;DHT22;17595;50.884;4.346;2023-06-19T06:30:01;22.10;99.90
30893;DHT22;17595;50.884;4.346;2023-06-19T06:32:28;22.20;99.90
30893;DHT22;17595;50.884;4.346;2023-06-19T06:34:54;22.10;99.90
30893;DHT22;17595;50.884;4.346;2023-06-19T06:37:20;22.20;99.90
30893;DHT22;17595;50.884;4.346;2023-06-19T06:39:48;22.30;99.90
30893;DHT22;17595;50.884;4.346;2023-06-19T06:42:15;22.20;99.90
30893;DHT22;17595;50.884;4.346;2023-06-19T06:44:41;22.20;99.90
30893;DHT22;17595;50.884;4.346;2023-06-19T06:47:06;22.40;99.90
30893;DHT22;17595;50.884;4.346;2023-06-19T06:49:32;22.80;99.90
30893;DHT22;17595;50.884;4.346;2023-06-19T06:51:58;22.80;99.90
30893;DHT22;17595;50.884;4.346;2023-06-19T06:54:23;22.90;99.90
30893;DHT22;17595;50.884;4.346;2023-06-19T06:56:49;23.10;99.90
30893;DHT22;17595;50.884;4.346;2023-06-19T06:59:15;23.00;99.90
30893;DHT22;17595;50.884;4.346;2023-06-19T07:01:43;22.90;99.90
30893;DHT22;17595;50.884;4.346;2023-06-19T07:04:09;22.60;99.90
30893;DHT22;17595;50.884;4.346;2023-06-19T07:06:34;22.50;99.90
30893;DHT22;17595;50.884;4.346;2023-06-19T07:09:00;22.60;99.90
30893;DHT22;17595;50.884;4.346;2023-06-19T07:11:26;22.70;99.90
30893;DHT22;17595;50.884;4.346;2023-06-19T07:13:51;22.80;99.90
30893;DHT22;17595;50.884;4.346;2023-06-19T07:16:17;23.00;99.90
30893;DHT22;17595;50.884;4.346;2023-06-19T07:18:42;22.90;99.90
30893;DHT22;17595;50.884;4.346;2023-06-19T07:21:12;23.10;99.90
30893;DHT22;17595;50.884;4.346;2023-06-19T07:23:41;23.20;99.90
30893;DHT22;17595;50.884;4.346;2023-06-19T07:26:08;23.20;99.90
30893;DHT22;17595;50.884;4.346;2023-06-19T07:28:34;23.40;99.90
30893;DHT22;17595;50.884;4.346;2023-06-19T07:31:02;23.50;99.90
30893;DHT22;17595;50.884;4.346;2023-06-19T07:33:28;23.50;99.90
30893;DHT22;17595;50.884;4.346;2023-06-19T07:35:55;23.70;99.90
30893;DHT22;17595;50.884;4.346;2023-06-19T07:38:21;23.40;99.90
30893;DHT22;17595;50.884;4.346;2023-06-19T07:40:46;23.30;99.90
30893;DHT22;17595;50.884;4.346;2023-06-19T07:43:12;23.10;99.90
30893;DHT22;17595;50.884;4.346;2023-06-19T07:45:37;23.30;99.90
30893;DHT22;17595;50.884;4.346;2023-06-19T07:48:03;23.60;99.90
30893;DHT22;17595;50.884;4.346;2023-06-19T07:50:29;23.50;99.90
30893;DHT22;17595;50.884;4.346;2023-06-19T07:52:55;23.60;99.90
30893;DHT22;17595;50.884;4.346;2023-06-19T07:55:21;23.90;99.90
30893;DHT22;17595;50.884;4.346;2023-06-19T07:57:47;24.00;99.90
30893;DHT22;17595;50.884;4.346;2023-06-19T08:00:13;23.80;99.90
30893;DHT22;17595;50.884;4.346;2023-06-19T08:02:40;23.80;99.90
30893;DHT22;17595;50.884;4.346;2023-06-19T08:05:07;23.90;99.90
30893;DHT22;17595;50.884;4.346;2023-06-19T08:07:33;24.00;99.90
30893;DHT22;17595;50.884;4.346;2023-06-19T08:09:59;23.70;99.90
30893;DHT22;17595;50.884;4.346;2023-06-19T08:12:24;24.00;99.90
30893;DHT22;17595;50.884;4.346;2023-06-19T08:14:50;24.40;99.90
30893;DHT22;17595;50.884;4.346;2023-06-19T08:17:16;24.50;99.90
30893;DHT22;17595;50.884;4.346;2023-06-19T08:19:41;24.40;99.90
30893;DHT22;17595;50.884;4.346;2023-06-19T08:22:08;24.60;99.90
30893;DHT22;17595;50.884;4.346;2023-06-19T08:24:34;24.90;99.90
30893;DHT22;17595;50.884;4.346;2023-06-19T08:27:02;24.20;99.90
30893;DHT22;17595;50.884;4.346;2023-06-19T08:29:27;23.80;99.90
30893;DHT22;17595;50.884;4.346;2023-06-19T08:31:53;23.60;99.90
30893;DHT22;17595;50.884;4.346;2023-06-19T08:34:19;23.60;99.90
30893;DHT22;17595;50.884;4.346;2023-06-19T08:36:44;23.40;99.90
30893;DHT22;17595;50.884;4.346;2023-06-19T08:39:10;23.20;99.90
30893;DHT22;17595;50.884;4.346;2023-06-19T08:41:39;23.20;99.90
30893;DHT22;17595;50.884;4.346;2023-06-19T08:44:06;23.00;99.90
30893;DHT22;17595;50.884;4.346;2023-06-19T08:46:33;23.20;99.90
30893;DHT22;17595;50.884;4.346;2023-06-19T08:49:00;23.60;99.90
30893;DHT22;17595;50.884;4.346;2023-06-19T08:51:29;23.80;99.90
30893;DHT22;17595;50.884;4.346;2023-06-19T08:54:07;23.80;99.90
30893;DHT22;17595;50.884;4.346;2023-06-19T08:56:34;23.60;99.90
30893;DHT22;17595;50.884;4.346;2023-06-19T08:59:17;23.40;99.90
30893;DHT22;17595;50.884;4.346;2023-06-19T09:01:53;23.50;99.90
30893;DHT22;17595;50.884;4.346;2023-06-19T09:04:22;23.70;99.90
30893;DHT22;17595;50.884;4.346;2023-06-19T09:06:53;23.80;99.90
30893;DHT22;17595;50.884;4.346;2023-06-19T09:09:20;23.50;99.90
30893;DHT22;17595;50.884;4.346;2023-06-19T09:12:04;23.80;99.90
30893;DHT22;17595;50.884;4.346;2023-06-19T09:14:34;24.20;99.90
30893;DHT22;17595;50.884;4.346;2023-06-19T09:17:04;24.00;99.90
30893;DHT22;17595;50.884;4.346;2023-06-19T09:19:30;24.10;99.90
30893;DHT22;17595;50.884;4.346;2023-06-19T09:22:01;24.10;99.90
30893;DHT22;17595;50.884;4.346;2023-06-19T09:24:37;24.30;99.90
30893;DHT22;17595;50.884;4.346;2023-06-19T09:27:13;24.50;99.90
30893;DHT22;17595;50.884;4.346;2023-06-19T09:29:44;24.60;99.90
30893;DHT22;17595;50.884;4.346;2023-06-19T09:32:20;24.90;99.90
30893;DHT22;17595;50.884;4.346;2023-06-19T09:34:47;25.00;99.90
30893;DHT22;17595;50.884;4.346;2023-06-19T09:37:14;25.10;99.90
30893;DHT22;17595;50.884;4.346;2023-06-19T09:39:41;24.90;99.90
30893;DHT22;17595;50.884;4.346;2023-06-19T09:42:08;23.90;99.90
30893;DHT22;17595;50.884;4.346;2023-06-19T09:44:46;23.70;99.90
30893;DHT22;17595;50.884;4.346;2023-06-19T09:47:22;24.00;99.90
30893;DHT22;17595;50.884;4.346;2023-06-19T09:49:55;24.20;99.90
30893;DHT22;17595;50.884;4.346;2023-06-19T09:52:22;24.10;99.90
30893;DHT22;17595;50.884;4.346;2023-06-19T09:54:53;24.00;99.90
30893;DHT22;17595;50.884;4.346;2023-06-19T09:57:19;24.20;99.90
30893;DHT22;17595;50.884;4.346;2023-06-19T09:59:51;24.40;99.90
30893;DHT22;17595;50.884;4.346;2023-06-19T10:02:19;24.10;99.90
30893;DHT22;17595;50.884;4.346;2023-06-19T10:04:49;24.00;99.90
30893;DHT22;17595;50.884;4.346;2023-06-19T10:07:25;24.20;99.90
30893;DHT22;17595;50.884;4.346;2023-06-19T10:10:05;24.20;99.90
30893;DHT22;17595;50.884;4.346;2023-06-19T10:12:44;24.50;99.90
30893;DHT22;17595;50.884;4.346;2023-06-19T10:15:12;24.30;99.90
30893;DHT22;17595;50.884;4.346;2023-06-19T10:17:49;24.40;99.90
30893;DHT22;17595;50.884;4.346;2023-06-19T10:20:35;24.20;99.90
30893;DHT22;17595;50.884;4.346;2023-06-19T10:23:10;24.20;99.90
30893;DHT22;17595;50.884;4.346;2023-06-19T10:25:40;24.20;99.90
30893;DHT22;17595;50.884;4.346;2023-06-19T10:30:42;23.80;99.90
30893;DHT22;17595;50.884;4.346;2023-06-19T10:33:07;24.00;99.90
30893;DHT22;17595;50.884;4.346;2023-06-19T10:35:40;23.90;99.90
30893;DHT22;17595;50.884;4.346;2023-06-19T10:38:07;23.90;99.90
30893;DHT22;17595;50.884;4.346;2023-06-19T10:40:36;24.40;99.90
30893;DHT22;17595;50.884;4.346;2023-06-19T10:43:02;24.70;99.90
30893;DHT22;17595;50.884;4.346;2023-06-19T10:45:27;24.30;99.90
30893;DHT22;17595;50.884;4.346;2023-06-19T10:47:54;24.00;99.90
30893;DHT22;17595;50.884;4.346;2023-06-19T10:50:20;23.70;99.90
30893;DHT22;17595;50.884;4.346;2023-06-19T10:52:46;23.70;99.90
30893;DHT22;17595;50.884;4.346;2023-06-19T10:55:13;23.40;99.90
30893;DHT22;17595;50.884;4.346;2023-06-19T10:57:49;23.30;99.90
30893;DHT22;17595;50.884;4.346;2023-06-19T11:00:33;23.20;99.90
30893;DHT22;17595;50.884;4.346;2023-06-19T11:02:59;23.40;99.90
30893;DHT22;17595;50.884;4.346;2023-06-19T11:05:26;23.80;99.90
30893;DHT22;17595;50.884;4.346;2023-06-19T11:07:58;23.90;99.90
30893;DHT22;17595;50.884;4.346;2023-06-19T11:10:28;24.50;99.90
30893;DHT22;17595;50.884;4.346;2023-06-19T11:12:58;24.30;99.90
30893;DHT22;17595;50.884;4.346;2023-06-19T11:15:33;24.40;99.90
30893;DHT22;17595;50.884;4.346;2023-06-19T11:18:01;24.50;99.90
30893;DHT22;17595;50.884;4.346;2023-06-19T11:20:27;24.20;99.90
30893;DHT22;17595;50.884;4.346;2023-06-19T11:23:00;24.00;99.90
30893;DHT22;17595;50.884;4.346;2023-06-19T11:25:36;23.70;99.90
30893;DHT22;17595;50.884;4.346;2023-06-19T11:28:04;23.70;99.90
30893;DHT22;17595;50.884;4.346;2023-06-19T11:30:33;23.90;99.90
30893;DHT22;17595;50.884;4.346;2023-06-19T11:32:59;24.10;99.90
30893;DHT22;17595;50.884;4.346;2023-06-19T11:35:32;23.90;99.90
30893;DHT22;17595;50.884;4.346;2023-06-19T11:37:59;24.10;99.90
30893;DHT22;17595;50.884;4.346;2023-06-19T11:40:25;24.30;99.90
30893;DHT22;17595;50.884;4.346;2023-06-19T11:42:54;23.90;99.90
30893;DHT22;17595;50.884;4.346;2023-06-19T11:45:20;23.80;99.90
30893;DHT22;17595;50.884;4.346;2023-06-19T11:47:47;24.00;99.90
30893;DHT22;17595;50.884;4.346;2023-06-19T11:50:14;23.80;99.90
30893;DHT22;17595;50.884;4.346;2023-06-19T11:52:42;23.70;99.90
30893;DHT22;17595;50.884;4.346;2023-06-19T11:55:09;23.60;99.90
30893;DHT22;17595;50.884;4.346;2023-06-19T11:57:34;23.80;99.90
30893;DHT22;17595;50.884;4.346;2023-06-19T12:00:00;23.80;99.90
30893;DHT22;17595;50.884;4.346;2023-06-19T12:02:26;24.00;99.90
30893;DHT22;17595;50.884;4.346;2023-06-19T12:04:52;23.90;99.30
30893;DHT22;17595;50.884;4.346;2023-06-19T12:07:18;23.80;97.80
30893;DHT22;17595;50.884;4.346;2023-06-19T12:09:43;23.80;98.60
30893;DHT22;17595;50.884;4.346;2023-06-19T12:12:10;23.80;99.20
30893;DHT22;17595;50.884;4.346;2023-06-19T12:14:35;24.10;99.90
30893;DHT22;17595;50.884;4.346;2023-06-19T12:17:01;24.20;99.80
30893;DHT22;17595;50.884;4.346;2023-06-19T12:19:27;24.40;99.10
30893;DHT22;17595;50.884;4.346;2023-06-19T12:21:55;24.50;99.90
30893;DHT22;17595;50.884;4.346;2023-06-19T12:24:21;24.70;98.60
30893;DHT22;17595;50.884;4.346;2023-06-19T12:26:46;25.10;98.70
30893;DHT22;17595;50.884;4.346;2023-06-19T12:29:12;25.10;98.60
30893;DHT22;17595;50.884;4.346;2023-06-19T12:31:37;25.20;99.40
30893;DHT22;17595;50.884;4.346;2023-06-19T12:34:04;25.20;97.70
30893;DHT22;17595;50.884;4.346;2023-06-19T12:36:31;25.10;97.30
30893;DHT22;17595;50.884;4.346;2023-06-19T12:38:58;25.10;97.70
30893;DHT22;17595;50.884;4.346;2023-06-19T12:41:24;24.90;98.30
30893;DHT22;17595;50.884;4.346;2023-06-19T12:43:50;25.00;97.60
30893;DHT22;17595;50.884;4.346;2023-06-19T12:46:15;25.20;97.70
30893;DHT22;17595;50.884;4.346;2023-06-19T12:48:41;24.90;97.00
30893;DHT22;17595;50.884;4.346;2023-06-19T12:51:07;24.40;97.90
30893;DHT22;17595;50.884;4.346;2023-06-19T12:53:33;24.30;98.50
30893;DHT22;17595;50.884;4.346;2023-06-19T12:55:59;24.30;98.70
30893;DHT22;17595;50.884;4.346;2023-06-19T12:58:25;24.20;98.90
30893;DHT22;17595;50.884;4.346;2023-06-19T13:00:52;24.20;98.50
30893;DHT22;17595;50.884;4.346;2023-06-19T13:03:18;24.10;98.90
30893;DHT22;17595;50.884;4.346;2023-06-19T13:05:45;24.00;98.50
30893;DHT22;17595;50.884;4.346;2023-06-19T13:08:11;24.10;98.10
30893;DHT22;17595;50.884;4.346;2023-06-19T13:10:36;24.10;97.70
30893;DHT22;17595;50.884;4.346;2023-06-19T13:13:03;24.20;97.70
30893;DHT22;17595;50.884;4.346;2023-06-19T13:15:31;24.20;98.00
30893;DHT22;17595;50.884;4.346;2023-06-19T13:17:57;24.20;97.80
30893;DHT22;17595;50.884;4.346;2023-06-19T13:20:23;24.20;97.90
30893;DHT22;17595;50.884;4.346;2023-06-19T13:22:48;24.40;97.90
30893;DHT22;17595;50.884;4.346;2023-06-19T13:25:14;24.50;97.80
30893;DHT22;17595;50.884;4.346;2023-06-19T13:27:40;24.70;97.70
30893;DHT22;17595;50.884;4.346;2023-06-19T13:30:06;24.50;97.60
30893;DHT22;17595;50.884;4.346;2023-06-19T13:32:32;24.60;98.30
30893;DHT22;17595;50.884;4.346;2023-06-19T13:34:57;24.60;97.50
30893;DHT22;17595;50.884;4.346;2023-06-19T13:37:23;24.80;98.70
30893;DHT22;17595;50.884;4.346;2023-06-19T13:39:49;24.90;97.60
30893;DHT22;17595;50.884;4.346;2023-06-19T13:42:14;25.10;97.30
30893;DHT22;17595;50.884;4.346;2023-06-19T13:44:40;25.00;96.70
30893;DHT22;17595;50.884;4.346;2023-06-19T13:47:06;25.20;97.30
30893;DHT22;17595;50.884;4.346;2023-06-19T13:49:31;25.10;96.50
30893;DHT22;17595;50.884;4.346;2023-06-19T13:51:57;25.20;96.80
30893;DHT22;17595;50.884;4.346;2023-06-19T13:54:23;25.30;96.80
30893;DHT22;17595;50.884;4.346;2023-06-19T13:56:48;25.20;96.90
30893;DHT22;17595;50.884;4.346;2023-06-19T13:59:16;25.10;96.80
30893;DHT22;17595;50.884;4.346;2023-06-19T14:01:42;25.10;97.80
30893;DHT22;17595;50.884;4.346;2023-06-19T14:04:08;24.80;97.60
30893;DHT22;17595;50.884;4.346;2023-06-19T14:06:36;24.70;98.00
30893;DHT22;17595;50.884;4.346;2023-06-19T14:09:03;24.80;98.30
30893;DHT22;17595;50.884;4.346;2023-06-19T14:11:29;25.00;98.80
30893;DHT22;17595;50.884;4.346;2023-06-19T14:13:55;25.10;98.10
30893;DHT22;17595;50.884;4.346;2023-06-19T14:16:21;25.00;98.10
30893;DHT22;17595;50.884;4.346;2023-06-19T14:18:46;25.00;98.10
30893;DHT22;17595;50.884;4.346;2023-06-19T14:21:12;25.10;97.80
30893;DHT22;17595;50.884;4.346;2023-06-19T14:23:38;25.20;97.80
30893;DHT22;17595;50.884;4.346;2023-06-19T14:26:09;25.30;98.20
30893;DHT22;17595;50.884;4.346;2023-06-19T14:28:37;25.60;98.10
30893;DHT22;17595;50.884;4.346;2023-06-19T14:31:03;25.80;97.70
30893;DHT22;17595;50.884;4.346;2023-06-19T14:33:29;25.90;96.70
30893;DHT22;17595;50.884;4.346;2023-06-19T14:35:55;25.70;96.70
30893;DHT22;17595;50.884;4.346;2023-06-19T14:38:20;25.50;96.20
30893;DHT22;17595;50.884;4.346;2023-06-19T14:40:46;25.50;97.10
30893;DHT22;17595;50.884;4.346;2023-06-19T14:43:12;25.40;97.50
30893;DHT22;17595;50.884;4.346;2023-06-19T14:45:37;25.40;97.90
30893;DHT22;17595;50.884;4.346;2023-06-19T14:48:05;25.80;97.50
30893;DHT22;17595;50.884;4.346;2023-06-19T14:50:31;26.20;97.40
30893;DHT22;17595;50.884;4.346;2023-06-19T14:52:56;26.50;96.80
30893;DHT22;17595;50.884;4.346;2023-06-19T14:55:22;26.70;96.80
30893;DHT22;17595;50.884;4.346;2023-06-19T14:57:48;26.80;96.40
30893;DHT22;17595;50.884;4.346;2023-06-19T15:00:14;26.80;96.90
30893;DHT22;17595;50.884;4.346;2023-06-19T15:02:39;27.20;96.60
30893;DHT22;17595;50.884;4.346;2023-06-19T15:05:05;27.50;95.80
30893;DHT22;17595;50.884;4.346;2023-06-19T15:07:31;27.50;95.10
30893;DHT22;17595;50.884;4.346;2023-06-19T15:09:56;27.00;95.50
30893;DHT22;17595;50.884;4.346;2023-06-19T15:12:23;27.10;95.80
30893;DHT22;17595;50.884;4.346;2023-06-19T15:14:49;26.80;95.30
30893;DHT22;17595;50.884;4.346;2023-06-19T15:17:14;26.90;95.70
30893;DHT22;17595;50.884;4.346;2023-06-19T15:19:40;27.30;96.10
30893;DHT22;17595;50.884;4.346;2023-06-19T15:22:05;27.30;95.20
30893;DHT22;17595;50.884;4.346;2023-06-19T15:24:31;27.30;95.00
30893;DHT22;17595;50.884;4.346;2023-06-19T15:26:57;27.10;95.90
30893;DHT22;17595;50.884;4.346;2023-06-19T15:29:24;27.10;95.60
30893;DHT22;17595;50.884;4.346;2023-06-19T15:31:50;27.10;95.40
30893;DHT22;17595;50.884;4.346;2023-06-19T15:34:15;27.50;95.50
30893;DHT22;17595;50.884;4.346;2023-06-19T15:36:41;27.20;95.10